sensor_id;sensor_type;location;lat;lon;timestamp;temperature;humidity
17954;DHT22;9102;53.548;9.926;2022-11-13T00:00:03;7.30;99.90
17954;DHT22;9102;53.548;9.926;2022-11-13T00:02:32;7.30;99.90
17954;DHT22;9102;53.548;9.926;2022-11-13T00:04:59;7.30;99.90
17954;DHT22;9102;53.548;9.926;2022-11-13T00:07:26;7.30;99.90
17954;DHT22;9102;53.548;9.926;2022-11-13T00:09:53;7.30;99.90
17954;DHT22;9102;53.548;9.926;2022-11-13T00:12:20;7.30;99.90
17954;DHT22;9102;53.548;9.926;2022-11-13T00:14:48;7.30;99.90
17954;DHT22;9102;53.548;9.926;2022-11-13T00:17:15;7.20;99.90
17954;DHT22;9102;53.548;9.926;2022-11-13T00:19:42;7.40;99.90
17954;DHT22;9102;53.548;9.926;2022-11-13T00:22:08;7.30;99.90
17954;DHT22;9102;53.548;9.926;2022-11-13T00:24:35;7.40;99.90
17954;DHT22;9102;53.548;9.926;2022-11-13T00:27:02;7.30;99.90
17954;DHT22;9102;53.548;9.926;2022-11-13T00:29:29;7.40;99.90
17954;DHT22;9102;53.548;9.926;2022-11-13T00:31:57;7.30;99.90
17954;DHT22;9102;53.548;9.926;2022-11-13T00:34:24;7.40;99.90
17954;DHT22;9102;53.548;9.926;2022-11-13T00:36:51;7.30;99.90
17954;DHT22;9102;53.548;9.926;2022-11-13T00:39:18;7.30;99.90
17954;DHT22;9102;53.548;9.926;2022-11-13T00:41:44;7.40;99.90
17954;DHT22;9102;53.548;9.926;2022-11-13T00:44:11;7.30;99.90
17954;DHT22;9102;53.548;9.926;2022-11-13T00:46:38;7.40;99.90
17954;DHT22;9102;53.548;9.926;2022-11-13T00:49:06;7.40;99.90
17954;DHT22;9102;53.548;9.926;2022-11-13T00:51:33;7.40;99.90
17954;DHT22;9102;53.548;9.926;2022-11-13T00:54:00;7.30;99.90
17954;DHT22;9102;53.548;9.926;2022-11-13T00:56:27;7.30;99.90
17954;DHT22;9102;53.548;9.926;2022-11-13T00:58:53;7.30;99.90
17954;DHT22;9102;53.548;9.926;2022-11-13T01:01:21;7.30;99.90
17954;DHT22;9102;53.548;9.926;2022-11-13T01:03:48;7.20;99.90
17954;DHT22;9102;53.548;9.926;2022-11-13T01:06:18;7.30;99.90
17954;DHT22;9102;53.548;9.926;2022-11-13T01:08:46;7.10;99.90
17954;DHT22;9102;53.548;9.926;2022-11-13T01:11:14;7.20;99.90
17954;DHT22;9102;53.548;9.926;2022-11-13T01:13:43;7.20;99.90
17954;DHT22;9102;53.548;9.926;2022-11-13T01:16:12;7.20;99.90
17954;DHT22;9102;53.548;9.926;2022-11-13T01:18:39;7.20;99.90
17954;DHT22;9102;53.548;9.926;2022-11-13T01:21:09;7.20;99.90
17954;DHT22;9102;53.548;9.926;2022-11-13T01:23:38;7.20;99.90
17954;DHT22;9102;53.548;9.926;2022-11-13T01:26:07;7.20;99.90
17954;DHT22;9102;53.548;9.926;2022-11-13T01:28:34;7.20;99.90
17954;DHT22;9102;53.548;9.926;2022-11-13T01:31:04;7.20;99.90
17954;DHT22;9102;53.548;9.926;2022-11-13T01:33:31;7.20;99.90
17954;DHT22;9102;53.548;9.926;2022-11-13T01:36:01;7.20;99.90
17954;DHT22;9102;53.548;9.926;2022-11-13T01:38:29;7.20;99.90
17954;DHT22;9102;53.548;9.926;2022-11-13T01:40:57;7.30;99.90
17954;DHT22;9102;53.548;9.926;2022-11-13T01:43:25;7.20;99.90
17954;DHT22;9102;53.548;9.926;2022-11-13T01:46:10;7.20;99.90
17954;DHT22;9102;53.548;9.926;2022-11-13T01:48:41;7.20;99.90
17954;DHT22;9102;53.548;9.926;2022-11-13T01:51:12;7.30;99.90
17954;DHT22;9102;53.548;9.926;2022-11-13T01:53:42;7.40;99.90
17954;DHT22;9102;53.548;9.926;2022-11-13T01:56:11;7.10;99.90
17954;DHT22;9102;53.548;9.926;2022-11-13T01:58:38;7.20;99.90
17954;DHT22;9102;53.548;9.926;2022-11-13T02:01:06;7.30;99.90
17954;DHT22;9102;53.548;9.926;2022-11-13T02:03:33;7.30;99.90
17954;DHT22;9102;53.548;9.926;2022-11-13T02:06:00;7.30;99.90
17954;DHT22;9102;53.548;9.926;2022-11-13T02:08:27;7.30;99.90
17954;DHT22;9102;53.548;9.926;2022-11-13T02:10:54;7.20;99.90
17954;DHT22;9102;53.548;9.926;2022-11-13T02:13:24;7.20;99.90
17954;DHT22;9102;53.548;9.926;2022-11-13T02:15:51;7.30;99.90
17954;DHT22;9102;53.548;9.926;2022-11-13T02:18:20;7.30;99.90
17954;DHT22;9102;53.548;9.926;2022-11-13T02:20:55;7.20;99.90
17954;DHT22;9102;53.548;9.926;2022-11-13T02:23:32;7.20;99.90
17954;DHT22;9102;53.548;9.926;2022-11-13T02:26:01;7.20;99.90
17954;DHT22;9102;53.548;9.926;2022-11-13T02:28:28;7.20;99.90
17954;DHT22;9102;53.548;9.926;2022-11-13T02:30:55;7.20;99.90
17954;DHT22;9102;53.548;9.926;2022-11-13T02:33:24;7.20;99.90
17954;DHT22;9102;53.548;9.926;2022-11-13T02:35:51;7.10;99.90
17954;DHT22;9102;53.548;9.926;2022-11-13T02:38:18;7.10;99.90
17954;DHT22;9102;53.548;9.926;2022-11-13T02:40:45;7.10;99.90
17954;DHT22;9102;53.548;9.926;2022-11-13T02:43:13;7.20;99.90
17954;DHT22;9102;53.548;9.926;2022-11-13T02:45:40;7.00;99.90
17954;DHT22;9102;53.548;9.926;2022-11-13T02:48:07;7.00;99.90
17954;DHT22;9102;53.548;9.926;2022-11-13T02:50:37;7.00;99.90
17954;DHT22;9102;53.548;9.926;2022-11-13T02:53:05;7.20;99.90
17954;DHT22;9102;53.548;9.926;2022-11-13T02:55:31;7.00;99.90
17954;DHT22;9102;53.548;9.926;2022-11-13T02:57:58;7.00;99.90
17954;DHT22;9102;53.548;9.926;2022-11-13T03:00:26;7.00;99.90
17954;DHT22;9102;53.548;9.926;2022-11-13T03:02:53;7.00;99.90
17954;DHT22;9102;53.548;9.926;2022-11-13T03:05:21;7.00;99.90
17954;DHT22;9102;53.548;9.926;2022-11-13T03:07:48;7.00;99.90
17954;DHT22;9102;53.548;9.926;2022-11-13T03:10:15;7.00;99.90
17954;DHT22;9102;53.548;9.926;2022-11-13T03:12:42;6.90;99.90
17954;DHT22;9102;53.548;9.926;2022-11-13T03:15:09;7.00;99.90
17954;DHT22;9102;53.548;9.926;2022-11-13T03:17:37;7.00;99.90
17954;DHT22;9102;53.548;9.926;2022-11-13T03:20:05;7.00;99.90
17954;DHT22;9102;53.548;9.926;2022-11-13T03:22:32;7.10;99.90
17954;DHT22;9102;53.548;9.926;2022-11-13T03:24:59;7.10;99.90
17954;DHT22;9102;53.548;9.926;2022-11-13T03:27:26;7.00;99.90
17954;DHT22;9102;53.548;9.926;2022-11-13T03:29:53;7.10;99.90
17954;DHT22;9102;53.548;9.926;2022-11-13T03:32:19;7.00;99.90
17954;DHT22;9102;53.548;9.926;2022-11-13T03:34:47;7.10;99.90
17954;DHT22;9102;53.548;9.926;2022-11-13T03:37:14;7.20;99.90
17954;DHT22;9102;53.548;9.926;2022-11-13T03:39:41;7.10;99.90
17954;DHT22;9102;53.548;9.926;2022-11-13T03:42:08;7.20;99.90
17954;DHT22;9102;53.548;9.926;2022-11-13T03:44:34;7.10;99.90
17954;DHT22;9102;53.548;9.926;2022-11-13T03:47:01;7.10;99.90
17954;DHT22;9102;53.548;9.926;2022-11-13T03:49:28;7.10;99.90
17954;DHT22;9102;53.548;9.926;2022-11-13T03:51:56;7.10;99.90
17954;DHT22;9102;53.548;9.926;2022-11-13T03:54:23;7.00;99.90
17954;DHT22;9102;53.548;9.926;2022-11-13T03:56:50;7.00;99.90
17954;DHT22;9102;53.548;9.926;2022-11-13T03:59:16;7.00;99.90
17954;DHT22;9102;53.548;9.926;2022-11-13T04:01:43;7.00;99.90
17954;DHT22;9102;53.548;9.926;2022-11-13T04:04:10;7.00;99.90
17954;DHT22;9102;53.548;9.926;2022-11-13T04:06:37;7.00;99.90
17954;DHT22;9102;53.548;9.926;2022-11-13T04:09:05;7.00;99.90
17954;DHT22;9102;53.548;9.926;2022-11-13T04:11:32;7.00;99.90
17954;DHT22;9102;53.548;9.926;2022-11-13T04:13:59;7.00;99.90
17954;DHT22;9102;53.548;9.926;2022-11-13T04:16:25;7.00;99.90
17954;DHT22;9102;53.548;9.926;2022-11-13T04:18:53;7.00;99.90
17954;DHT22;9102;53.548;9.926;2022-11-13T04:21:19;6.90;99.90
17954;DHT22;9102;53.548;9.926;2022-11-13T04:23:46;6.90;99.90
17954;DHT22;9102;53.548;9.926;2022-11-13T04:26:14;7.00;99.90
17954;DHT22;9102;53.548;9.926;2022-11-13T04:28:41;6.90;99.90
17954;DHT22;9102;53.548;9.926;2022-11-13T04:31:08;6.90;99.90
17954;DHT22;9102;53.548;9.926;2022-11-13T04:33:35;6.80;99.90
17954;DHT22;9102;53.548;9.926;2022-11-13T04:36:02;6.80;99.90
17954;DHT22;9102;53.548;9.926;2022-11-13T04:38:28;6.80;99.90
17954;DHT22;9102;53.548;9.926;2022-11-13T04:40:55;6.80;99.90
17954;DHT22;9102;53.548;9.926;2022-11-13T04:43:37;6.80;99.90
17954;DHT22;9102;53.548;9.926;2022-11-13T04:46:04;6.80;99.90
17954;DHT22;9102;53.548;9.926;2022-11-13T04:48:31;6.80;99.90
17954;DHT22;9102;53.548;9.926;2022-11-13T04:50:58;6.80;99.90
17954;DHT22;9102;53.548;9.926;2022-11-13T04:53:26;6.90;99.90
17954;DHT22;9102;53.548;9.926;2022-11-13T04:55:54;6.80;99.90
17954;DHT22;9102;53.548;9.926;2022-11-13T04:58:21;6.70;99.90
17954;DHT22;9102;53.548;9.926;2022-11-13T05:00:49;6.70;99.90
17954;DHT22;9102;53.548;9.926;2022-11-13T05:03:15;6.70;99.90
17954;DHT22;9102;53.548;9.926;2022-11-13T05:05:42;6.60;99.90
17954;DHT22;9102;53.548;9.926;2022-11-13T05:08:09;6.60;99.90
17954;DHT22;9102;53.548;9.926;2022-11-13T05:10:37;6.60;99.90
17954;DHT22;9102;53.548;9.926;2022-11-13T05:13:04;6.60;99.90
17954;DHT22;9102;53.548;9.926;2022-11-13T05:15:30;6.60;99.90
17954;DHT22;9102;53.548;9.926;2022-11-13T05:17:59;6.60;99.90
17954;DHT22;9102;53.548;9.926;2022-11-13T05:20:25;6.60;99.90
17954;DHT22;9102;53.548;9.926;2022-11-13T05:22:52;6.60;99.90
17954;DHT22;9102;53.548;9.926;2022-11-13T05:25:20;6.50;99.90
17954;DHT22;9102;53.548;9.926;2022-11-13T05:27:47;6.50;99.90
17954;DHT22;9102;53.548;9.926;2022-11-13T05:30:14;6.50;99.90
17954;DHT22;9102;53.548;9.926;2022-11-13T05:32:41;6.50;99.90
17954;DHT22;9102;53.548;9.926;2022-11-13T05:35:09;6.50;99.90
17954;DHT22;9102;53.548;9.926;2022-11-13T05:37:36;6.50;99.90
17954;DHT22;9102;53.548;9.926;2022-11-13T05:40:04;6.50;99.90
17954;DHT22;9102;53.548;9.926;2022-11-13T05:42:31;6.40;99.90
17954;DHT22;9102;53.548;9.926;2022-11-13T05:44:58;6.40;99.90
17954;DHT22;9102;53.548;9.926;2022-11-13T05:47:24;6.40;99.90
17954;DHT22;9102;53.548;9.926;2022-11-13T05:49:51;6.40;99.90
17954;DHT22;9102;53.548;9.926;2022-11-13T05:52:19;6.40;99.90
17954;DHT22;9102;53.548;9.926;2022-11-13T05:54:46;6.40;99.90
17954;DHT22;9102;53.548;9.926;2022-11-13T05:57:13;6.30;99.90
17954;DHT22;9102;53.548;9.926;2022-11-13T05:59:39;6.30;99.90
17954;DHT22;9102;53.548;9.926;2022-11-13T06:02:06;6.30;99.90
17954;DHT22;9102;53.548;9.926;2022-11-13T06:04:33;6.40;99.90
17954;DHT22;9102;53.548;9.926;2022-11-13T06:07:00;6.30;99.90
17954;DHT22;9102;53.548;9.926;2022-11-13T06:09:28;6.30;99.90
17954;DHT22;9102;53.548;9.926;2022-11-13T06:11:55;6.30;99.90
17954;DHT22;9102;53.548;9.926;2022-11-13T06:14:22;6.20;99.90
17954;DHT22;9102;53.548;9.926;2022-11-13T06:16:49;6.20;99.90
17954;DHT22;9102;53.548;9.926;2022-11-13T06:19:15;6.20;99.90
17954;DHT22;9102;53.548;9.926;2022-11-13T06:21:42;6.30;99.90
17954;DHT22;9102;53.548;9.926;2022-11-13T06:24:11;6.20;99.90
17954;DHT22;9102;53.548;9.926;2022-11-13T06:26:39;6.10;99.90
17954;DHT22;9102;53.548;9.926;2022-11-13T06:29:08;6.10;99.90
17954;DHT22;9102;53.548;9.926;2022-11-13T06:31:36;6.10;99.90
17954;DHT22;9102;53.548;9.926;2022-11-13T06:34:04;6.10;99.90
17954;DHT22;9102;53.548;9.926;2022-11-13T06:36:34;6.10;99.90
17954;DHT22;9102;53.548;9.926;2022-11-13T06:39:03;6.00;99.90
17954;DHT22;9102;53.548;9.926;2022-11-13T06:41:30;6.10;99.90
17954;DHT22;9102;53.548;9.926;2022-11-13T06:43:59;6.10;99.90
17954;DHT22;9102;53.548;9.926;2022-11-13T06:46:27;6.10;99.90
17954;DHT22;9102;53.548;9.926;2022-11-13T06:48:54;6.10;99.90
17954;DHT22;9102;53.548;9.926;2022-11-13T06:51:23;6.10;99.90
17954;DHT22;9102;53.548;9.926;2022-11-13T06:53:50;6.10;99.90
17954;DHT22;9102;53.548;9.926;2022-11-13T06:56:17;6.10;99.90
17954;DHT22;9102;53.548;9.926;2022-11-13T06:58:44;6.10;99.90
17954;DHT22;9102;53.548;9.926;2022-11-13T07:01:15;6.10;99.90
17954;DHT22;9102;53.548;9.926;2022-11-13T07:03:43;6.10;99.90
17954;DHT22;9102;53.548;9.926;2022-11-13T07:06:11;6.10;99.90
17954;DHT22;9102;53.548;9.926;2022-11-13T07:08:39;6.10;99.90
17954;DHT22;9102;53.548;9.926;2022-11-13T07:11:09;6.10;99.90
17954;DHT22;9102;53.548;9.926;2022-11-13T07:13:37;6.10;99.90
17954;DHT22;9102;53.548;9.926;2022-11-13T07:16:05;6.10;99.90
17954;DHT22;9102;53.548;9.926;2022-11-13T07:18:34;6.10;99.90
17954;DHT22;9102;53.548;9.926;2022-11-13T07:21:03;6.10;99.90
17954;DHT22;9102;53.548;9.926;2022-11-13T07:23:31;6.10;99.90
17954;DHT22;9102;53.548;9.926;2022-11-13T07:25:58;6.10;99.90
17954;DHT22;9102;53.548;9.926;2022-11-13T07:28:25;6.10;99.90
17954;DHT22;9102;53.548;9.926;2022-11-13T07:30:52;6.20;99.90
17954;DHT22;9102;53.548;9.926;2022-11-13T07:33:19;6.10;99.90
17954;DHT22;9102;53.548;9.926;2022-11-13T07:35:47;6.10;99.90
17954;DHT22;9102;53.548;9.926;2022-11-13T07:38:14;6.00;99.90
17954;DHT22;9102;53.548;9.926;2022-11-13T07:40:41;6.00;99.90
17954;DHT22;9102;53.548;9.926;2022-11-13T07:43:08;6.00;99.90
17954;DHT22;9102;53.548;9.926;2022-11-13T07:45:34;6.00;99.90
17954;DHT22;9102;53.548;9.926;2022-11-13T07:48:02;6.00;99.90
17954;DHT22;9102;53.548;9.926;2022-11-13T07:50:31;5.90;99.90
17954;DHT22;9102;53.548;9.926;2022-11-13T07:53:02;5.90;99.90
17954;DHT22;9102;53.548;9.926;2022-11-13T07:55:29;5.90;99.90
17954;DHT22;9102;53.548;9.926;2022-11-13T07:57:57;5.80;99.90
17954;DHT22;9102;53.548;9.926;2022-11-13T08:00:24;5.80;99.90
17954;DHT22;9102;53.548;9.926;2022-11-13T08:02:51;5.90;99.90
17954;DHT22;9102;53.548;9.926;2022-11-13T08:05:18;5.90;99.90
17954;DHT22;9102;53.548;9.926;2022-11-13T08:07:49;5.90;99.90
17954;DHT22;9102;53.548;9.926;2022-11-13T08:10:19;5.90;99.90
17954;DHT22;9102;53.548;9.926;2022-11-13T08:12:46;6.00;99.90
17954;DHT22;9102;53.548;9.926;2022-11-13T08:15:13;6.00;99.90
17954;DHT22;9102;53.548;9.926;2022-11-13T08:17:40;6.00;99.90
17954;DHT22;9102;53.548;9.926;2022-11-13T08:20:08;6.10;99.90
17954;DHT22;9102;53.548;9.926;2022-11-13T08:22:35;6.10;99.90
17954;DHT22;9102;53.548;9.926;2022-11-13T08:25:01;6.30;99.90
17954;DHT22;9102;53.548;9.926;2022-11-13T08:27:30;6.20;99.90
17954;DHT22;9102;53.548;9.926;2022-11-13T08:29:57;6.30;99.90
17954;DHT22;9102;53.548;9.926;2022-11-13T08:32:26;6.30;99.90
17954;DHT22;9102;53.548;9.926;2022-11-13T08:34:53;6.30;99.90
17954;DHT22;9102;53.548;9.926;2022-11-13T08:37:20;6.30;99.90
17954;DHT22;9102;53.548;9.926;2022-11-13T08:39:47;6.30;99.90
17954;DHT22;9102;53.548;9.926;2022-11-13T08:42:14;6.30;99.90
17954;DHT22;9102;53.548;9.926;2022-11-13T08:44:42;6.40;99.90
17954;DHT22;9102;53.548;9.926;2022-11-13T08:47:09;6.40;99.90
17954;DHT22;9102;53.548;9.926;2022-11-13T08:49:35;6.40;99.90
17954;DHT22;9102;53.548;9.926;2022-11-13T08:52:02;6.40;99.90
17954;DHT22;9102;53.548;9.926;2022-11-13T08:54:29;6.40;99.90
17954;DHT22;9102;53.548;9.926;2022-11-13T08:56:56;6.50;99.90
17954;DHT22;9102;53.548;9.926;2022-11-13T08:59:23;6.60;99.90
17954;DHT22;9102;53.548;9.926;2022-11-13T09:01:52;6.70;99.90
17954;DHT22;9102;53.548;9.926;2022-11-13T09:04:23;6.70;99.90
17954;DHT22;9102;53.548;9.926;2022-11-13T09:06:50;6.70;99.90
17954;DHT22;9102;53.548;9.926;2022-11-13T09:09:17;6.80;99.90
17954;DHT22;9102;53.548;9.926;2022-11-13T09:11:44;6.90;99.90
17954;DHT22;9102;53.548;9.926;2022-11-13T09:14:11;6.90;99.90
17954;DHT22;9102;53.548;9.926;2022-11-13T09:16:38;6.90;99.90
17954;DHT22;9102;53.548;9.926;2022-11-13T09:19:06;6.90;99.90
17954;DHT22;9102;53.548;9.926;2022-11-13T09:21:33;7.00;99.90
17954;DHT22;9102;53.548;9.926;2022-11-13T09:24:00;7.00;99.90
17954;DHT22;9102;53.548;9.926;2022-11-13T09:26:26;7.00;99.90
17954;DHT22;9102;53.548;9.926;2022-11-13T09:28:53;7.00;99.90
17954;DHT22;9102;53.548;9.926;2022-11-13T09:31:20;7.10;99.90
17954;DHT22;9102;53.548;9.926;2022-11-13T09:33:47;7.00;99.90
17954;DHT22;9102;53.548;9.926;2022-11-13T09:36:15;7.10;99.90
17954;DHT22;9102;53.548;9.926;2022-11-13T09:38:42;7.20;99.90
17954;DHT22;9102;53.548;9.926;2022-11-13T09:41:11;7.10;99.90
17954;DHT22;9102;53.548;9.926;2022-11-13T09:43:41;7.20;99.90
17954;DHT22;9102;53.548;9.926;2022-11-13T09:46:15;7.20;99.90
17954;DHT22;9102;53.548;9.926;2022-11-13T09:48:47;7.40;99.90
17954;DHT22;9102;53.548;9.926;2022-11-13T09:51:19;7.50;99.90
17954;DHT22;9102;53.548;9.926;2022-11-13T09:53:46;7.50;99.90
17954;DHT22;9102;53.548;9.926;2022-11-13T09:56:19;7.60;99.90
17954;DHT22;9102;53.548;9.926;2022-11-13T09:58:54;7.50;99.90
17954;DHT22;9102;53.548;9.926;2022-11-13T10:01:30;7.50;99.90
17954;DHT22;9102;53.548;9.926;2022-11-13T10:04:03;7.60;99.90
17954;DHT22;9102;53.548;9.926;2022-11-13T10:06:45;7.60;99.90
17954;DHT22;9102;53.548;9.926;2022-11-13T10:09:23;7.60;99.90
17954;DHT22;9102;53.548;9.926;2022-11-13T10:11:54;7.60;99.90
17954;DHT22;9102;53.548;9.926;2022-11-13T10:14:23;7.70;99.90
17954;DHT22;9102;53.548;9.926;2022-11-13T10:16:54;7.60;99.90
17954;DHT22;9102;53.548;9.926;2022-11-13T10:19:29;7.80;99.90
17954;DHT22;9102;53.548;9.926;2022-11-13T10:22:01;7.90;99.90
17954;DHT22;9102;53.548;9.926;2022-11-13T10:24:35;7.90;99.90
17954;DHT22;9102;53.548;9.926;2022-11-13T10:27:07;7.90;99.90
17954;DHT22;9102;53.548;9.926;2022-11-13T10:29:34;7.80;99.90
17954;DHT22;9102;53.548;9.926;2022-11-13T10:32:16;7.90;99.90
17954;DHT22;9102;53.548;9.926;2022-11-13T10:34:48;7.90;99.90
17954;DHT22;9102;53.548;9.926;2022-11-13T10:37:27;8.00;99.90
17954;DHT22;9102;53.548;9.926;2022-11-13T10:39:55;8.10;99.90
17954;DHT22;9102;53.548;9.926;2022-11-13T10:42:26;8.20;99.90
17954;DHT22;9102;53.548;9.926;2022-11-13T10:44:55;8.20;99.90
17954;DHT22;9102;53.548;9.926;2022-11-13T10:47:23;8.20;99.90
17954;DHT22;9102;53.548;9.926;2022-11-13T10:49:50;8.10;99.90
17954;DHT22;9102;53.548;9.926;2022-11-13T10:52:21;8.10;99.90
17954;DHT22;9102;53.548;9.926;2022-11-13T10:54:49;8.10;99.90
17954;DHT22;9102;53.548;9.926;2022-11-13T10:57:27;8.00;99.90
17954;DHT22;9102;53.548;9.926;2022-11-13T10:59:55;8.00;99.90
17954;DHT22;9102;53.548;9.926;2022-11-13T11:02:24;8.00;99.90
17954;DHT22;9102;53.548;9.926;2022-11-13T11:05:01;8.00;99.90
17954;DHT22;9102;53.548;9.926;2022-11-13T11:07:29;8.00;99.90
17954;DHT22;9102;53.548;9.926;2022-11-13T11:09:59;8.10;99.90
17954;DHT22;9102;53.548;9.926;2022-11-13T11:12:26;8.00;99.90
17954;DHT22;9102;53.548;9.926;2022-11-13T11:15:04;8.10;99.90
17954;DHT22;9102;53.548;9.926;2022-11-13T11:17:40;8.00;99.90
17954;DHT22;9102;53.548;9.926;2022-11-13T11:20:18;8.00;99.90
17954;DHT22;9102;53.548;9.926;2022-11-13T11:22:50;8.00;99.90
17954;DHT22;9102;53.548;9.926;2022-11-13T11:25:26;8.00;99.90
17954;DHT22;9102;53.548;9.926;2022-11-13T11:27:58;8.00;99.90
17954;DHT22;9102;53.548;9.926;2022-11-13T11:30:38;8.00;99.90
17954;DHT22;9102;53.548;9.926;2022-11-13T11:33:12;7.90;99.90
17954;DHT22;9102;53.548;9.926;2022-11-13T11:35:44;7.90;99.90
17954;DHT22;9102;53.548;9.926;2022-11-13T11:38:20;7.90;99.90
17954;DHT22;9102;53.548;9.926;2022-11-13T11:40:54;7.90;99.90
17954;DHT22;9102;53.548;9.926;2022-11-13T11:43:28;8.00;99.90
17954;DHT22;9102;53.548;9.926;2022-11-13T11:46:00;8.10;99.90
17954;DHT22;9102;53.548;9.926;2022-11-13T11:48:30;8.10;99.90
17954;DHT22;9102;53.548;9.926;2022-11-13T11:51:01;8.10;99.90
17954;DHT22;9102;53.548;9.926;2022-11-13T11:53:38;8.20;99.90
17954;DHT22;9102;53.548;9.926;2022-11-13T11:56:15;8.30;99.90
17954;DHT22;9102;53.548;9.926;2022-11-13T11:59:08;8.30;99.90
17954;DHT22;9102;53.548;9.926;2022-11-13T12:04:46;8.40;99.90
17954;DHT22;9102;53.548;9.926;2022-11-13T12:07:27;8.50;99.90
17954;DHT22;9102;53.548;9.926;2022-11-13T12:10:03;8.50;99.90
17954;DHT22;9102;53.548;9.926;2022-11-13T12:12:42;8.50;99.90
17954;DHT22;9102;53.548;9.926;2022-11-13T12:15:14;8.70;99.90
17954;DHT22;9102;53.548;9.926;2022-11-13T12:17:51;8.60;99.90
17954;DHT22;9102;53.548;9.926;2022-11-13T12:20:26;8.70;99.90
17954;DHT22;9102;53.548;9.926;2022-11-13T12:23:00;8.70;99.90
17954;DHT22;9102;53.548;9.926;2022-11-13T12:25:34;8.70;99.90
17954;DHT22;9102;53.548;9.926;2022-11-13T12:28:09;8.70;99.90
17954;DHT22;9102;53.548;9.926;2022-11-13T12:30:46;8.70;99.90
17954;DHT22;9102;53.548;9.926;2022-11-13T12:33:22;8.80;99.90
17954;DHT22;9102;53.548;9.926;2022-11-13T12:35:53;8.90;99.90
17954;DHT22;9102;53.548;9.926;2022-11-13T12:38:38;8.90;99.90
17954;DHT22;9102;53.548;9.926;2022-11-13T12:41:15;9.00;99.90
17954;DHT22;9102;53.548;9.926;2022-11-13T12:44:01;9.10;99.90
17954;DHT22;9102;53.548;9.926;2022-11-13T12:46:33;9.10;99.90
17954;DHT22;9102;53.548;9.926;2022-11-13T12:49:01;9.00;99.90
17954;DHT22;9102;53.548;9.926;2022-11-13T12:51:37;9.20;99.90
17954;DHT22;9102;53.548;9.926;2022-11-13T12:54:04;8.80;99.90
17954;DHT22;9102;53.548;9.926;2022-11-13T12:56:33;8.90;99.90
17954;DHT22;9102;53.548;9.926;2022-11-13T12:59:02;9.00;99.90
17954;DHT22;9102;53.548;9.926;2022-11-13T13:01:32;8.90;99.90
17954;DHT22;9102;53.548;9.926;2022-11-13T13:04:30;9.00;99.90
17954;DHT22;9102;53.548;9.926;2022-11-13T13:07:13;9.00;99.90
17954;DHT22;9102;53.548;9.926;2022-11-13T13:09:51;9.10;99.90
17954;DHT22;9102;53.548;9.926;2022-11-13T13:12:33;9.20;99.90
17954;DHT22;9102;53.548;9.926;2022-11-13T13:15:14;9.10;99.90
17954;DHT22;9102;53.548;9.926;2022-11-13T13:17:44;9.10;99.90
17954;DHT22;9102;53.548;9.926;2022-11-13T13:20:33;9.30;99.90
17954;DHT22;9102;53.548;9.926;2022-11-13T13:23:01;9.20;99.90
17954;DHT22;9102;53.548;9.926;2022-11-13T13:25:29;9.20;99.90
17954;DHT22;9102;53.548;9.926;2022-11-13T13:27:59;9.10;99.90
17954;DHT22;9102;53.548;9.926;2022-11-13T13:30:27;9.10;99.90
17954;DHT22;9102;53.548;9.926;2022-11-13T13:33:06;9.10;99.90
17954;DHT22;9102;53.548;9.926;2022-11-13T13:35:44;9.10;99.90
17954;DHT22;9102;53.548;9.926;2022-11-13T13:38:21;9.20;99.90
17954;DHT22;9102;53.548;9.926;2022-11-13T13:40:58;9.10;99.90
17954;DHT22;9102;53.548;9.926;2022-11-13T13:43:40;9.10;99.90
17954;DHT22;9102;53.548;9.926;2022-11-13T13:46:13;9.20;99.90
17954;DHT22;9102;53.548;9.926;2022-11-13T13:48:44;9.20;99.90
17954;DHT22;9102;53.548;9.926;2022-11-13T13:51:18;9.20;99.90
17954;DHT22;9102;53.548;9.926;2022-11-13T13:53:47;9.20;99.90
17954;DHT22;9102;53.548;9.926;2022-11-13T13:56:15;9.20;99.90
17954;DHT22;9102;53.548;9.926;2022-11-13T13:58:45;9.10;99.90
17954;DHT22;9102;53.548;9.926;2022-11-13T14:01:13;9.10;99.90
17954;DHT22;9102;53.548;9.926;2022-11-13T14:03:40;9.20;99.90
17954;DHT22;9102;53.548;9.926;2022-11-13T14:06:09;9.20;99.90
17954;DHT22;9102;53.548;9.926;2022-11-13T14:08:41;9.20;99.90
17954;DHT22;9102;53.548;9.926;2022-11-13T14:11:19;9.10;99.90
17954;DHT22;9102;53.548;9.926;2022-11-13T14:13:47;9.10;99.90
17954;DHT22;9102;53.548;9.926;2022-11-13T14:16:14;9.10;99.90
17954;DHT22;9102;53.548;9.926;2022-11-13T14:18:41;9.10;99.90
17954;DHT22;9102;53.548;9.926;2022-11-13T14:21:11;9.10;99.90
17954;DHT22;9102;53.548;9.926;2022-11-13T14:23:44;9.10;99.90
17954;DHT22;9102;53.548;9.926;2022-11-13T14:26:11;9.10;99.90
17954;DHT22;9102;53.548;9.926;2022-11-13T14:28:44;9.10;99.90
17954;DHT22;9102;53.548;9.926;2022-11-13T14:31:13;9.20;99.90
17954;DHT22;9102;53.548;9.926;2022-11-13T14:33:42;9.20;99.90
17954;DHT22;9102;53.548;9.926;2022-11-13T14:36:10;9.10;99.90
17954;DHT22;9102;53.548;9.926;2022-11-13T14:38:40;9.10;99.90
17954;DHT22;9102;53.548;9.926;2022-11-13T14:41:19;9.20;99.90
17954;DHT22;9102;53.548;9.926;2022-11-13T14:43:48;9.20;99.90
17954;DHT22;9102;53.548;9.926;2022-11-13T14:46:29;9.20;99.90
17954;DHT22;9102;53.548;9.926;2022-11-13T14:48:56;9.10;99.90
17954;DHT22;9102;53.548;9.926;2022-11-13T14:51:25;9.10;99.90
17954;DHT22;9102;53.548;9.926;2022-11-13T14:53:58;9.20;99.90
17954;DHT22;9102;53.548;9.926;2022-11-13T14:56:34;9.10;99.90
17954;DHT22;9102;53.548;9.926;2022-11-13T14:59:08;9.10;99.90
17954;DHT22;9102;53.548;9.926;2022-11-13T15:01:36;9.10;99.90
17954;DHT22;9102;53.548;9.926;2022-11-13T15:04:03;9.00;99.90
17954;DHT22;9102;53.548;9.926;2022-11-13T15:06:36;9.10;99.90
17954;DHT22;9102;53.548;9.926;2022-11-13T15:09:04;9.10;99.90
17954;DHT22;9102;53.548;9.926;2022-11-13T15:11:32;9.10;99.90
17954;DHT22;9102;53.548;9.926;2022-11-13T15:13:59;9.10;99.90
17954;DHT22;9102;53.548;9.926;2022-11-13T15:16:27;9.10;99.90
17954;DHT22;9102;53.548;9.926;2022-11-13T15:19:00;9.10;99.90
17954;DHT22;9102;53.548;9.926;2022-11-13T15:21:28;9.00;99.90
17954;DHT22;9102;53.548;9.926;2022-11-13T15:23:57;8.90;99.90
17954;DHT22;9102;53.548;9.926;2022-11-13T15:26:25;8.90;99.90
17954;DHT22;9102;53.548;9.926;2022-11-13T15:28:53;9.10;99.90
17954;DHT22;9102;53.548;9.926;2022-11-13T15:31:21;9.10;99.90
17954;DHT22;9102;53.548;9.926;2022-11-13T15:33:49;9.10;99.90
17954;DHT22;9102;53.548;9.926;2022-11-13T15:36:17;9.10;99.90
17954;DHT22;9102;53.548;9.926;2022-11-13T15:38:44;9.10;99.90
17954;DHT22;9102;53.548;9.926;2022-11-13T15:41:12;9.20;99.90
17954;DHT22;9102;53.548;9.926;2022-11-13T15:43:42;9.10;99.90
17954;DHT22;9102;53.548;9.926;2022-11-13T15:46:11;9.20;99.90
17954;DHT22;9102;53.548;9.926;2022-11-13T15:48:40;9.20;99.90
17954;DHT22;9102;53.548;9.926;2022-11-13T15:51:14;9.10;99.90
17954;DHT22;9102;53.548;9.926;2022-11-13T15:53:48;9.20;99.90
17954;DHT22;9102;53.548;9.926;2022-11-13T15:56:15;9.10;99.90
17954;DHT22;9102;53.548;9.926;2022-11-13T15:58:43;9.20;99.90
17954;DHT22;9102;53.548;9.926;2022-11-13T16:01:12;9.20;99.90
17954;DHT22;9102;53.548;9.926;2022-11-13T16:03:39;9.20;99.90
17954;DHT22;9102;53.548;9.926;2022-11-13T16:06:09;9.20;99.90
17954;DHT22;9102;53.548;9.926;2022-11-13T16:08:37;9.10;99.90
17954;DHT22;9102;53.548;9.926;2022-11-13T16:11:05;9.10;99.90
17954;DHT22;9102;53.548;9.926;2022-11-13T16:13:32;9.10;99.90
17954;DHT22;9102;53.548;9.926;2022-11-13T16:16:00;9.20;99.90
17954;DHT22;9102;53.548;9.926;2022-11-13T16:18:28;9.20;99.90